sensor_id;sensor_type;location;lat;lon;timestamp;pressure;altitude;pressure_sealevel;temperature;humidity
36834;BME280;48003;52.084;5.224;2022-07-29T00:00:44;101821.0;;;20.87;51.02
36834;BME280;48003;52.084;5.224;2022-07-29T00:02:32;101816.0;;;20.94;50.94
36834;BME280;48003;52.084;5.224;2022-07-29T00:04:19;101817.0;;;20.89;51.01
36834;BME280;48003;52.084;5.224;2022-07-29T00:07:53;101821.0;;;20.64;51.41
36834;BME280;48003;52.084;5.224;2022-07-29T00:09:41;101817.0;;;20.7;51.43
36834;BME280;48003;52.084;5.224;2022-07-29T00:11:28;101814.0;;;20.81;51.16
36834;BME280;48003;52.084;5.224;2022-07-29T00:13:15;101810.0;;;20.77;51.2
36834;BME280;48003;52.084;5.224;2022-07-29T00:15:01;101810.0;;;20.72;51.3
36834;BME280;48003;52.084;5.224;2022-07-29T00:18:34;101803.0;;;20.64;51.43
36834;BME280;48003;52.084;5.224;2022-07-29T00:20:20;101800.0;;;20.65;51.5
36834;BME280;48003;52.084;5.224;2022-07-29T00:22:07;101801.0;;;20.63;51.6
36834;BME280;48003;52.084;5.224;2022-07-29T00:23:54;101799.0;;;20.51;51.92
36834;BME280;48003;52.084;5.224;2022-07-29T00:25:40;101803.0;;;20.48;52.07
36834;BME280;48003;52.084;5.224;2022-07-29T00:27:26;101798.0;;;20.55;51.77
36834;BME280;48003;52.084;5.224;2022-07-29T00:30:58;101799.0;;;20.58;51.73
36834;BME280;48003;52.084;5.224;2022-07-29T00:32:44;101792.0;;;20.66;51.62
36834;BME280;48003;52.084;5.224;2022-07-29T00:37:33;101786.0;;;20.54;51.92
36834;BME280;48003;52.084;5.224;2022-07-29T00:39:19;101785.0;;;20.51;51.99
36834;BME280;48003;52.084;5.224;2022-07-29T00:41:05;101775.0;;;20.27;52.49
36834;BME280;48003;52.084;5.224;2022-07-29T00:42:52;101780.0;;;20.34;52.34
36834;BME280;48003;52.084;5.224;2022-07-29T00:44:39;101775.0;;;20.34;52.32
36834;BME280;48003;52.084;5.224;2022-07-29T00:46:26;101777.0;;;20.47;52.1
36834;BME280;48003;52.084;5.224;2022-07-29T00:48:12;101772.0;;;20.36;52.32
36834;BME280;48003;52.084;5.224;2022-07-29T00:53:36;101772.0;;;20.13;52.91
36834;BME280;48003;52.084;5.224;2022-07-29T00:55:22;101771.0;;;20.0;53.12
36834;BME280;48003;52.084;5.224;2022-07-29T00:57:10;101769.0;;;20.0;53.28
36834;BME280;48003;52.084;5.224;2022-07-29T00:58:58;101766.0;;;20.22;52.74
36834;BME280;48003;52.084;5.224;2022-07-29T01:02:31;101765.0;;;20.16;52.71
36834;BME280;48003;52.084;5.224;2022-07-29T01:04:19;101767.0;;;20.28;52.52
36834;BME280;48003;52.084;5.224;2022-07-29T01:06:05;101760.0;;;20.23;52.59
36834;BME280;48003;52.084;5.224;2022-07-29T01:07:53;101763.0;;;20.16;52.88
36834;BME280;48003;52.084;5.224;2022-07-29T01:09:45;101761.0;;;20.18;52.79
36834;BME280;48003;52.084;5.224;2022-07-29T01:11:32;101757.0;;;20.21;53.03
36834;BME280;48003;52.084;5.224;2022-07-29T01:13:20;101760.0;;;20.16;52.95
36834;BME280;48003;52.084;5.224;2022-07-29T01:16:59;101757.0;;;20.02;53.17
36834;BME280;48003;52.084;5.224;2022-07-29T01:19:05;101756.0;;;20.06;53.11
36834;BME280;48003;52.084;5.224;2022-07-29T01:21:23;101757.0;;;19.89;53.48
36834;BME280;48003;52.084;5.224;2022-07-29T01:24:57;101752.0;;;20.11;53.09
36834;BME280;48003;52.084;5.224;2022-07-29T01:26:54;101757.0;;;19.95;53.31
36834;BME280;48003;52.084;5.224;2022-07-29T01:28:52;101755.0;;;20.05;53.24
36834;BME280;48003;52.084;5.224;2022-07-29T01:30:47;101759.0;;;19.93;53.47
36834;BME280;48003;52.084;5.224;2022-07-29T01:32:38;101764.0;;;19.57;54.24
36834;BME280;48003;52.084;5.224;2022-07-29T01:34:30;101762.0;;;19.68;54.04
36834;BME280;48003;52.084;5.224;2022-07-29T01:36:23;101766.0;;;19.87;53.5
36834;BME280;48003;52.084;5.224;2022-07-29T01:40:19;101768.0;;;19.95;53.21
36834;BME280;48003;52.084;5.224;2022-07-29T01:42:12;101768.0;;;19.7;54.08
36834;BME280;48003;52.084;5.224;2022-07-29T01:44:10;101766.0;;;19.72;54.08
36834;BME280;48003;52.084;5.224;2022-07-29T01:46:03;101767.0;;;19.82;53.67
36834;BME280;48003;52.084;5.224;2022-07-29T01:47:56;101766.0;;;19.78;53.86
36834;BME280;48003;52.084;5.224;2022-07-29T01:49:51;101766.0;;;19.93;53.46
36834;BME280;48003;52.084;5.224;2022-07-29T01:51:44;101764.0;;;19.87;53.54
36834;BME280;48003;52.084;5.224;2022-07-29T01:53:38;101763.0;;;19.89;53.54
36834;BME280;48003;52.084;5.224;2022-07-29T01:55:40;101762.0;;;19.87;53.46
36834;BME280;48003;52.084;5.224;2022-07-29T01:57:31;101766.0;;;19.53;54.39
36834;BME280;48003;52.084;5.224;2022-07-29T01:59:20;101766.0;;;19.7;53.93
36834;BME280;48003;52.084;5.224;2022-07-29T02:02:58;101768.0;;;19.81;53.64
36834;BME280;48003;52.084;5.224;2022-07-29T02:04:49;101766.0;;;19.86;53.55
36834;BME280;48003;52.084;5.224;2022-07-29T02:06:38;101762.0;;;19.86;53.59
36834;BME280;48003;52.084;5.224;2022-07-29T02:08:28;101758.0;;;19.91;53.4
36834;BME280;48003;52.084;5.224;2022-07-29T02:10:18;101759.0;;;19.86;53.56
36834;BME280;48003;52.084;5.224;2022-07-29T02:12:09;101758.0;;;19.82;53.64
36834;BME280;48003;52.084;5.224;2022-07-29T02:14:00;101759.0;;;19.79;53.72
36834;BME280;48003;52.084;5.224;2022-07-29T02:17:39;101760.0;;;19.77;53.74
36834;BME280;48003;52.084;5.224;2022-07-29T02:19:31;101760.0;;;19.77;53.59
36834;BME280;48003;52.084;5.224;2022-07-29T02:21:21;101755.0;;;19.62;54.21
36834;BME280;48003;52.084;5.224;2022-07-29T02:23:10;101758.0;;;19.7;53.94
36834;BME280;48003;52.084;5.224;2022-07-29T02:25:00;101756.0;;;19.84;53.61
36834;BME280;48003;52.084;5.224;2022-07-29T02:26:49;101757.0;;;19.72;53.9
36834;BME280;48003;52.084;5.224;2022-07-29T02:30:24;101757.0;;;19.81;53.69
36834;BME280;48003;52.084;5.224;2022-07-29T02:32:13;101759.0;;;19.64;54.03
36834;BME280;48003;52.084;5.224;2022-07-29T02:34:03;101760.0;;;19.87;53.47
36834;BME280;48003;52.084;5.224;2022-07-29T02:35:52;101758.0;;;19.91;53.37
36834;BME280;48003;52.084;5.224;2022-07-29T02:37:41;101760.0;;;19.81;53.59
36834;BME280;48003;52.084;5.224;2022-07-29T02:39:29;101755.0;;;19.8;53.73
36834;BME280;48003;52.084;5.224;2022-07-29T02:41:20;101750.0;;;19.78;53.81
36834;BME280;48003;52.084;5.224;2022-07-29T02:44:57;101748.0;;;19.82;53.74
36834;BME280;48003;52.084;5.224;2022-07-29T02:46:47;101747.0;;;19.29;54.85
36834;BME280;48003;52.084;5.224;2022-07-29T02:48:38;101747.0;;;19.37;54.75
36834;BME280;48003;52.084;5.224;2022-07-29T02:50:32;101749.0;;;19.45;54.52
36834;BME280;48003;52.084;5.224;2022-07-29T02:52:24;101746.0;;;19.2;55.34
36834;BME280;48003;52.084;5.224;2022-07-29T02:54:21;101745.0;;;19.14;55.43
36834;BME280;48003;52.084;5.224;2022-07-29T02:56:13;101748.0;;;19.54;54.48
36834;BME280;48003;52.084;5.224;2022-07-29T02:58:02;101746.0;;;19.59;54.38
36834;BME280;48003;52.084;5.224;2022-07-29T03:01:44;101746.0;;;19.7;54.21
36834;BME280;48003;52.084;5.224;2022-07-29T03:03:35;101743.0;;;19.63;54.3
36834;BME280;48003;52.084;5.224;2022-07-29T03:05:22;101738.0;;;19.57;54.43
36834;BME280;48003;52.084;5.224;2022-07-29T03:07:10;101740.0;;;19.54;54.58
36834;BME280;48003;52.084;5.224;2022-07-29T03:09:00;101739.0;;;19.48;54.84
36834;BME280;48003;52.084;5.224;2022-07-29T03:10:48;101739.0;;;19.5;54.82
36834;BME280;48003;52.084;5.224;2022-07-29T03:12:35;101743.0;;;19.53;54.77
36834;BME280;48003;52.084;5.224;2022-07-29T03:16:11;101736.0;;;19.57;54.57
36834;BME280;48003;52.084;5.224;2022-07-29T03:17:59;101736.0;;;19.59;54.49
36834;BME280;48003;52.084;5.224;2022-07-29T03:19:46;101731.0;;;19.54;54.6
36834;BME280;48003;52.084;5.224;2022-07-29T03:21:33;101736.0;;;19.45;54.85
36834;BME280;48003;52.084;5.224;2022-07-29T03:23:22;101730.0;;;19.39;54.91
36834;BME280;48003;52.084;5.224;2022-07-29T03:25:11;101730.0;;;19.43;54.88
36834;BME280;48003;52.084;5.224;2022-07-29T03:28:46;101730.0;;;19.43;54.95
36834;BME280;48003;52.084;5.224;2022-07-29T03:30:33;101725.0;;;19.37;55.07
36834;BME280;48003;52.084;5.224;2022-07-29T03:32:20;101721.0;;;19.43;54.91
36834;BME280;48003;52.084;5.224;2022-07-29T03:34:06;101721.0;;;19.45;54.81
36834;BME280;48003;52.084;5.224;2022-07-29T03:35:52;101724.0;;;19.43;54.87
36834;BME280;48003;52.084;5.224;2022-07-29T03:39:27;101722.0;;;19.43;54.84
36834;BME280;48003;52.084;5.224;2022-07-29T03:41:18;101725.0;;;19.46;54.73
36834;BME280;48003;52.084;5.224;2022-07-29T03:43:07;101721.0;;;19.3;54.9
36834;BME280;48003;52.084;5.224;2022-07-29T03:44:57;101717.0;;;19.43;54.69
36834;BME280;48003;52.084;5.224;2022-07-29T03:46:45;101719.0;;;19.5;54.7
36834;BME280;48003;52.084;5.224;2022-07-29T03:48:37;101715.0;;;19.36;54.98
36834;BME280;48003;52.084;5.224;2022-07-29T03:50:26;101715.0;;;19.5;54.56
36834;BME280;48003;52.084;5.224;2022-07-29T03:54:00;101720.0;;;19.34;55.06
36834;BME280;48003;52.084;5.224;2022-07-29T03:55:51;101721.0;;;19.53;54.62
36834;BME280;48003;52.084;5.224;2022-07-29T03:57:41;101720.0;;;19.34;54.97
36834;BME280;48003;52.084;5.224;2022-07-29T03:59:30;101715.0;;;19.45;54.72
36834;BME280;48003;52.084;5.224;2022-07-29T04:01:19;101716.0;;;19.28;55.03
36834;BME280;48003;52.084;5.224;2022-07-29T04:03:08;101713.0;;;19.45;54.77
36834;BME280;48003;52.084;5.224;2022-07-29T04:04:55;101714.0;;;19.5;54.66
36834;BME280;48003;52.084;5.224;2022-07-29T04:08:31;101712.0;;;19.11;55.45
36834;BME280;48003;52.084;5.224;2022-07-29T04:10:19;101716.0;;;19.37;54.82
36834;BME280;48003;52.084;5.224;2022-07-29T04:12:06;101711.0;;;19.3;55.02
36834;BME280;48003;52.084;5.224;2022-07-29T04:13:52;101714.0;;;19.41;54.95
36834;BME280;48003;52.084;5.224;2022-07-29T04:15:38;101717.0;;;19.32;55.04
36834;BME280;48003;52.084;5.224;2022-07-29T04:17:25;101712.0;;;19.43;54.77
36834;BME280;48003;52.084;5.224;2022-07-29T04:21:00;101712.0;;;19.3;55.01
36834;BME280;48003;52.084;5.224;2022-07-29T04:22:47;101712.0;;;19.18;55.46
36834;BME280;48003;52.084;5.224;2022-07-29T04:24:34;101711.0;;;19.28;55.15
36834;BME280;48003;52.084;5.224;2022-07-29T04:26:21;101709.0;;;19.25;55.09
36834;BME280;48003;52.084;5.224;2022-07-29T04:28:09;101702.0;;;19.27;55.21
36834;BME280;48003;52.084;5.224;2022-07-29T04:31:43;101705.0;;;19.31;55.06
36834;BME280;48003;52.084;5.224;2022-07-29T04:33:29;101708.0;;;19.18;55.47
36834;BME280;48003;52.084;5.224;2022-07-29T04:35:15;101707.0;;;19.25;55.22
36834;BME280;48003;52.084;5.224;2022-07-29T04:37:02;101706.0;;;19.09;55.67
36834;BME280;48003;52.084;5.224;2022-07-29T04:38:49;101711.0;;;19.38;55.03
36834;BME280;48003;52.084;5.224;2022-07-29T04:40:36;101713.0;;;19.22;55.2
36834;BME280;48003;52.084;5.224;2022-07-29T04:44:08;101714.0;;;19.29;55.06
36834;BME280;48003;52.084;5.224;2022-07-29T04:45:55;101718.0;;;19.47;54.64
36834;BME280;48003;52.084;5.224;2022-07-29T04:47:41;101718.0;;;19.47;54.69
36834;BME280;48003;52.084;5.224;2022-07-29T04:49:28;101719.0;;;19.34;55.02
36834;BME280;48003;52.084;5.224;2022-07-29T04:51:14;101723.0;;;19.5;54.71
36834;BME280;48003;52.084;5.224;2022-07-29T04:53:02;101723.0;;;19.45;54.94
36834;BME280;48003;52.084;5.224;2022-07-29T04:56:35;101723.0;;;19.43;54.95
36834;BME280;48003;52.084;5.224;2022-07-29T04:58:23;101723.0;;;19.34;55.18
36834;BME280;48003;52.084;5.224;2022-07-29T05:00:10;101721.0;;;19.38;55.16
36834;BME280;48003;52.084;5.224;2022-07-29T05:01:57;101722.0;;;19.2;55.49
36834;BME280;48003;52.084;5.224;2022-07-29T05:03:44;101719.0;;;19.22;55.59
36834;BME280;48003;52.084;5.224;2022-07-29T05:05:31;101723.0;;;19.45;54.92
36834;BME280;48003;52.084;5.224;2022-07-29T05:09:04;101717.0;;;19.29;55.34
36834;BME280;48003;52.084;5.224;2022-07-29T05:10:51;101718.0;;;19.2;55.76
36834;BME280;48003;52.084;5.224;2022-07-29T05:12:37;101715.0;;;19.07;55.93
36834;BME280;48003;52.084;5.224;2022-07-29T05:14:23;101719.0;;;19.23;55.57
36834;BME280;48003;52.084;5.224;2022-07-29T05:16:10;101717.0;;;19.41;55.09
36834;BME280;48003;52.084;5.224;2022-07-29T05:19:43;101712.0;;;19.16;55.8
36834;BME280;48003;52.084;5.224;2022-07-29T05:21:30;101714.0;;;19.22;55.67
36834;BME280;48003;52.084;5.224;2022-07-29T05:23:16;101713.0;;;19.36;55.35
36834;BME280;48003;52.084;5.224;2022-07-29T05:25:04;101712.0;;;19.07;55.88
36834;BME280;48003;52.084;5.224;2022-07-29T05:26:50;101711.0;;;19.02;56.28
36834;BME280;48003;52.084;5.224;2022-07-29T05:28:37;101716.0;;;19.36;55.42
36834;BME280;48003;52.084;5.224;2022-07-29T05:32:11;101722.0;;;19.27;55.78
36834;BME280;48003;52.084;5.224;2022-07-29T05:33:58;101721.0;;;19.36;55.5
36834;BME280;48003;52.084;5.224;2022-07-29T05:35:44;101727.0;;;19.41;55.57
36834;BME280;48003;52.084;5.224;2022-07-29T05:37:31;101725.0;;;19.27;56.05
36834;BME280;48003;52.084;5.224;2022-07-29T05:39:17;101726.0;;;19.47;55.47
36834;BME280;48003;52.084;5.224;2022-07-29T05:42:51;101722.0;;;19.52;55.39
36834;BME280;48003;52.084;5.224;2022-07-29T05:44:38;101728.0;;;19.48;55.5
36834;BME280;48003;52.084;5.224;2022-07-29T05:46:25;101731.0;;;19.53;55.51
36834;BME280;48003;52.084;5.224;2022-07-29T05:48:12;101741.0;;;19.56;55.51
36834;BME280;48003;52.084;5.224;2022-07-29T05:49:58;101743.0;;;19.54;55.65
36834;BME280;48003;52.084;5.224;2022-07-29T05:51:44;101746.0;;;19.5;55.82
36834;BME280;48003;52.084;5.224;2022-07-29T05:55:18;101743.0;;;19.59;55.54
36834;BME280;48003;52.084;5.224;2022-07-29T05:57:05;101744.0;;;19.68;55.42
36834;BME280;48003;52.084;5.224;2022-07-29T05:58:52;101742.0;;;19.61;55.16
36834;BME280;48003;52.084;5.224;2022-07-29T06:00:40;101741.0;;;19.47;55.49
36834;BME280;48003;52.084;5.224;2022-07-29T06:02:26;101737.0;;;19.64;55.08
36834;BME280;48003;52.084;5.224;2022-07-29T06:04:12;101738.0;;;19.77;54.96
36834;BME280;48003;52.084;5.224;2022-07-29T06:07:46;101732.0;;;19.5;55.49
36834;BME280;48003;52.084;5.224;2022-07-29T06:09:32;101735.0;;;19.66;55.09
36834;BME280;48003;52.084;5.224;2022-07-29T06:11:19;101735.0;;;19.62;55.08
36834;BME280;48003;52.084;5.224;2022-07-29T06:13:05;101735.0;;;19.8;54.95
36834;BME280;48003;52.084;5.224;2022-07-29T06:14:51;101738.0;;;19.87;54.82
36834;BME280;48003;52.084;5.224;2022-07-29T06:18:24;101741.0;;;19.61;55.12
36834;BME280;48003;52.084;5.224;2022-07-29T06:20:10;101747.0;;;19.75;55.04
36834;BME280;48003;52.084;5.224;2022-07-29T06:21:57;101748.0;;;19.72;55.29
36834;BME280;48003;52.084;5.224;2022-07-29T06:23:45;101747.0;;;19.79;54.95
36834;BME280;48003;52.084;5.224;2022-07-29T06:25:34;101744.0;;;19.68;55.63
36834;BME280;48003;52.084;5.224;2022-07-29T06:27:20;101746.0;;;19.75;55.75
36834;BME280;48003;52.084;5.224;2022-07-29T06:30:55;101753.0;;;19.87;55.6
36834;BME280;48003;52.084;5.224;2022-07-29T06:32:42;101756.0;;;19.66;56.44
36834;BME280;48003;52.084;5.224;2022-07-29T06:34:28;101755.0;;;19.84;55.96
36834;BME280;48003;52.084;5.224;2022-07-29T06:36:15;101760.0;;;19.93;55.88
36834;BME280;48003;52.084;5.224;2022-07-29T06:38:02;101764.0;;;20.0;55.52
36834;BME280;48003;52.084;5.224;2022-07-29T06:41:00;101766.0;;;19.97;55.47
36834;BME280;48003;52.084;5.224;2022-07-29T06:42:46;101766.0;;;20.12;55.21
36834;BME280;48003;52.084;5.224;2022-07-29T06:44:34;101767.0;;;20.32;54.85
36834;BME280;48003;52.084;5.224;2022-07-29T06:46:21;101771.0;;;20.18;55.08
36834;BME280;48003;52.084;5.224;2022-07-29T06:48:08;101772.0;;;20.3;54.47
36834;BME280;48003;52.084;5.224;2022-07-29T06:51:41;101780.0;;;19.86;54.97
36834;BME280;48003;52.084;5.224;2022-07-29T06:53:28;101774.0;;;20.34;54.25
36834;BME280;48003;52.084;5.224;2022-07-29T06:55:16;101780.0;;;20.43;53.82
36834;BME280;48003;52.084;5.224;2022-07-29T06:57:02;101778.0;;;20.58;54.0
36834;BME280;48003;52.084;5.224;2022-07-29T06:58:48;101781.0;;;20.62;53.64
36834;BME280;48003;52.084;5.224;2022-07-29T07:00:35;101785.0;;;20.64;53.8
36834;BME280;48003;52.084;5.224;2022-07-29T07:04:09;101783.0;;;20.73;53.43
36834;BME280;48003;52.084;5.224;2022-07-29T07:05:56;101776.0;;;20.8;53.01
36834;BME280;48003;52.084;5.224;2022-07-29T07:07:43;101774.0;;;20.81;53.04
36834;BME280;48003;52.084;5.224;2022-07-29T07:09:29;101780.0;;;20.78;53.2
36834;BME280;48003;52.084;5.224;2022-07-29T07:11:15;101782.0;;;20.74;52.91
36834;BME280;48003;52.084;5.224;2022-07-29T07:14:49;101785.0;;;20.68;52.86
36834;BME280;48003;52.084;5.224;2022-07-29T07:16:36;101784.0;;;20.62;53.21
36834;BME280;48003;52.084;5.224;2022-07-29T07:18:22;101780.0;;;20.67;53.5
36834;BME280;48003;52.084;5.224;2022-07-29T07:20:08;101782.0;;;20.67;53.53
36834;BME280;48003;52.084;5.224;2022-07-29T07:21:55;101780.0;;;20.76;52.99
36834;BME280;48003;52.084;5.224;2022-07-29T07:23:42;101777.0;;;20.69;53.4
36834;BME280;48003;52.084;5.224;2022-07-29T07:27:14;101780.0;;;20.68;53.18
36834;BME280;48003;52.084;5.224;2022-07-29T07:29:00;101787.0;;;20.64;53.3
36834;BME280;48003;52.084;5.224;2022-07-29T07:30:47;101788.0;;;20.63;53.38
36834;BME280;48003;52.084;5.224;2022-07-29T07:32:35;101782.0;;;20.85;52.84
36834;BME280;48003;52.084;5.224;2022-07-29T07:34:21;101778.0;;;20.71;52.87
36834;BME280;48003;52.084;5.224;2022-07-29T07:37:55;101774.0;;;20.65;53.43
36834;BME280;48003;52.084;5.224;2022-07-29T07:39:42;101773.0;;;20.67;52.81
36834;BME280;48003;52.084;5.224;2022-07-29T07:41:28;101774.0;;;20.64;52.44
36834;BME280;48003;52.084;5.224;2022-07-29T07:43:14;101767.0;;;20.93;52.28
36834;BME280;48003;52.084;5.224;2022-07-29T07:45:00;101762.0;;;20.79;52.36
36834;BME280;48003;52.084;5.224;2022-07-29T07:46:46;101758.0;;;21.12;52.11
36834;BME280;48003;52.084;5.224;2022-07-29T07:50:21;101751.0;;;21.19;52.19
36834;BME280;48003;52.084;5.224;2022-07-29T07:52:08;101753.0;;;21.21;52.15
36834;BME280;48003;52.084;5.224;2022-07-29T07:53:54;101747.0;;;21.17;52.33
36834;BME280;48003;52.084;5.224;2022-07-29T07:55:42;101745.0;;;21.29;52.22
36834;BME280;48003;52.084;5.224;2022-07-29T07:57:29;101746.0;;;20.75;53.12
36834;BME280;48003;52.084;5.224;2022-07-29T07:59:15;101747.0;;;21.21;52.32
36834;BME280;48003;52.084;5.224;2022-07-29T08:02:50;101755.0;;;21.24;52.21
36834;BME280;48003;52.084;5.224;2022-07-29T08:04:37;101762.0;;;21.21;52.19
36834;BME280;48003;52.084;5.224;2022-07-29T08:06:25;101766.0;;;21.41;52.01
36834;BME280;48003;52.084;5.224;2022-07-29T08:08:11;101761.0;;;21.61;51.59
36834;BME280;48003;52.084;5.224;2022-07-29T08:09:57;101758.0;;;21.6;50.96
36834;BME280;48003;52.084;5.224;2022-07-29T08:11:43;101763.0;;;21.6;51.4
36834;BME280;48003;52.084;5.224;2022-07-29T08:15:17;101761.0;;;21.64;50.36
36834;BME280;48003;52.084;5.224;2022-07-29T08:17:03;101755.0;;;21.62;50.96
36834;BME280;48003;52.084;5.224;2022-07-29T08:18:49;101755.0;;;21.69;51.39
36834;BME280;48003;52.084;5.224;2022-07-29T08:20:36;101756.0;;;21.78;51.36
36834;BME280;48003;52.084;5.224;2022-07-29T08:22:23;101760.0;;;21.66;50.92
36834;BME280;48003;52.084;5.224;2022-07-29T08:26:59;101765.0;;;21.83;50.84
36834;BME280;48003;52.084;5.224;2022-07-29T08:28:46;101766.0;;;21.88;50.78
36834;BME280;48003;52.084;5.224;2022-07-29T08:30:33;101766.0;;;21.89;49.99
36834;BME280;48003;52.084;5.224;2022-07-29T08:34:09;101765.0;;;21.66;50.32
36834;BME280;48003;52.084;5.224;2022-07-29T08:35:55;101765.0;;;21.47;50.92
36834;BME280;48003;52.084;5.224;2022-07-29T08:37:42;101761.0;;;21.57;50.74
36834;BME280;48003;52.084;5.224;2022-07-29T08:39:28;101766.0;;;21.55;50.8
36834;BME280;48003;52.084;5.224;2022-07-29T08:41:15;101768.0;;;21.72;50.52
36834;BME280;48003;52.084;5.224;2022-07-29T08:44:54;101771.0;;;22.06;50.47
36834;BME280;48003;52.084;5.224;2022-07-29T08:46:42;101768.0;;;22.3;50.76
36834;BME280;48003;52.084;5.224;2022-07-29T08:48:29;101767.0;;;22.19;50.49
36834;BME280;48003;52.084;5.224;2022-07-29T08:50:15;101764.0;;;22.22;50.09
36834;BME280;48003;52.084;5.224;2022-07-29T08:52:02;101764.0;;;22.62;49.54
36834;BME280;48003;52.084;5.224;2022-07-29T08:53:49;101767.0;;;22.58;49.33
36834;BME280;48003;52.084;5.224;2022-07-29T08:57:26;101766.0;;;22.83;49.29
36834;BME280;48003;52.084;5.224;2022-07-29T08:59:13;101771.0;;;23.05;49.04
36834;BME280;48003;52.084;5.224;2022-07-29T09:01:02;101772.0;;;23.18;48.46
36834;BME280;48003;52.084;5.224;2022-07-29T09:02:55;101768.0;;;23.02;48.1
36834;BME280;48003;52.084;5.224;2022-07-29T09:04:42;101766.0;;;23.16;48.46
36834;BME280;48003;52.084;5.224;2022-07-29T09:06:33;101775.0;;;23.27;48.2
36834;BME280;48003;52.084;5.224;2022-07-29T09:08:23;101776.0;;;23.41;47.12
36834;BME280;48003;52.084;5.224;2022-07-29T09:11:58;101776.0;;;23.33;47.52
36834;BME280;48003;52.084;5.224;2022-07-29T09:13:46;101776.0;;;23.37;46.72
36834;BME280;48003;52.084;5.224;2022-07-29T09:15:33;101772.0;;;23.16;47.02
36834;BME280;48003;52.084;5.224;2022-07-29T09:17:39;101762.0;;;23.26;46.93
36834;BME280;48003;52.084;5.224;2022-07-29T09:19:28;101758.0;;;23.34;46.94
36834;BME280;48003;52.084;5.224;2022-07-29T09:22:29;101755.0;;;23.16;47.59
36834;BME280;48003;52.084;5.224;2022-07-29T09:24:16;101749.0;;;23.25;47.68
36834;BME280;48003;52.084;5.224;2022-07-29T09:26:05;101751.0;;;23.11;48.13
36834;BME280;48003;52.084;5.224;2022-07-29T09:27:51;101748.0;;;23.39;47.66
36834;BME280;48003;52.084;5.224;2022-07-29T09:29:38;101753.0;;;23.65;47.83
36834;BME280;48003;52.084;5.224;2022-07-29T09:31:32;101750.0;;;23.79;47.68
36834;BME280;48003;52.084;5.224;2022-07-29T09:33:20;101750.0;;;23.78;48.07
36834;BME280;48003;52.084;5.224;2022-07-29T09:37:05;101748.0;;;23.83;47.57
36834;BME280;48003;52.084;5.224;2022-07-29T09:38:57;101748.0;;;23.82;47.66
36834;BME280;48003;52.084;5.224;2022-07-29T09:40:56;101744.0;;;24.26;47.04
36834;BME280;48003;52.084;5.224;2022-07-29T09:42:43;101744.0;;;24.21;46.07
36834;BME280;48003;52.084;5.224;2022-07-29T09:44:46;101744.0;;;24.2;46.74
36834;BME280;48003;52.084;5.224;2022-07-29T09:46:34;101749.0;;;24.16;47.13
36834;BME280;48003;52.084;5.224;2022-07-29T09:48:24;101750.0;;;24.23;47.02
36834;BME280;48003;52.084;5.224;2022-07-29T09:50:11;101747.0;;;24.68;45.83
36834;BME280;48003;52.084;5.224;2022-07-29T09:53:50;101747.0;;;24.7;45.44
36834;BME280;48003;52.084;5.224;2022-07-29T09:55:52;101749.0;;;24.62;44.98
36834;BME280;48003;52.084;5.224;2022-07-29T09:57:39;101748.0;;;25.0;44.73
36834;BME280;48003;52.084;5.224;2022-07-29T09:59:26;101747.0;;;24.91;44.66
36834;BME280;48003;52.084;5.224;2022-07-29T10:01:12;101749.0;;;24.91;44.14
36834;BME280;48003;52.084;5.224;2022-07-29T10:03:01;101755.0;;;25.27;44.09
36834;BME280;48003;52.084;5.224;2022-07-29T10:04:48;101752.0;;;25.31;42.95
36834;BME280;48003;52.084;5.224;2022-07-29T10:08:41;101749.0;;;25.22;43.41
36834;BME280;48003;52.084;5.224;2022-07-29T10:10:29;101751.0;;;25.21;43.21
36834;BME280;48003;52.084;5.224;2022-07-29T10:12:18;101747.0;;;24.97;43.13
36834;BME280;48003;52.084;5.224;2022-07-29T10:14:05;101747.0;;;24.98;43.03
36834;BME280;48003;52.084;5.224;2022-07-29T10:15:52;101742.0;;;25.09;43.04
36834;BME280;48003;52.084;5.224;2022-07-29T10:17:39;101747.0;;;25.04;43.43
36834;BME280;48003;52.084;5.224;2022-07-29T10:19:28;101741.0;;;25.46;43.12
36834;BME280;48003;52.084;5.224;2022-07-29T10:23:03;101744.0;;;25.28;42.55
36834;BME280;48003;52.084;5.224;2022-07-29T10:24:51;101742.0;;;25.12;42.07
36834;BME280;48003;52.084;5.224;2022-07-29T10:26:41;101740.0;;;25.25;42.15
36834;BME280;48003;52.084;5.224;2022-07-29T10:28:29;101741.0;;;25.48;42.51
36834;BME280;48003;52.084;5.224;2022-07-29T10:30:16;101739.0;;;25.72;42.27
36834;BME280;48003;52.084;5.224;2022-07-29T10:32:16;101739.0;;;26.15;41.27
36834;BME280;48003;52.084;5.224;2022-07-29T10:34:12;101743.0;;;26.1;41.7
36834;BME280;48003;52.084;5.224;2022-07-29T10:36:15;101743.0;;;26.4;41.44
36834;BME280;48003;52.084;5.224;2022-07-29T10:41:57;101735.0;;;26.74;39.22
36834;BME280;48003;52.084;5.224;2022-07-29T10:43:59;101739.0;;;26.54;40.25
36834;BME280;48003;52.084;5.224;2022-07-29T10:45:47;101737.0;;;26.46;40.36
36834;BME280;48003;52.084;5.224;2022-07-29T10:47:36;101736.0;;;26.69;40.06
36834;BME280;48003;52.084;5.224;2022-07-29T10:49:23;101733.0;;;26.92;39.92
36834;BME280;48003;52.084;5.224;2022-07-29T10:51:11;101733.0;;;26.98;39.01
36834;BME280;48003;52.084;5.224;2022-07-29T10:52:58;101732.0;;;26.94;39.12
36834;BME280;48003;52.084;5.224;2022-07-29T10:56:36;101732.0;;;27.12;38.71
36834;BME280;48003;52.084;5.224;2022-07-29T10:58:23;101734.0;;;27.22;38.49
36834;BME280;48003;52.084;5.224;2022-07-29T11:00:30;101735.0;;;27.2;38.62
36834;BME280;48003;52.084;5.224;2022-07-29T11:02:50;101733.0;;;27.13;40.5
36834;BME280;48003;52.084;5.224;2022-07-29T11:05:09;101733.0;;;26.93;40.68
36834;BME280;48003;52.084;5.224;2022-07-29T11:07:08;101734.0;;;26.69;42.24
36834;BME280;48003;52.084;5.224;2022-07-29T11:09:28;101734.0;;;26.71;42.56
36834;BME280;48003;52.084;5.224;2022-07-29T11:13:55;101728.0;;;26.53;43.57
36834;BME280;48003;52.084;5.224;2022-07-29T11:15:57;101726.0;;;26.32;44.79
36834;BME280;48003;52.084;5.224;2022-07-29T11:18:04;101731.0;;;26.32;45.13
36834;BME280;48003;52.084;5.224;2022-07-29T11:19:52;101731.0;;;26.18;44.53